Weather observations for the past three days for
Manistee County - Blacker Airport
Metric (Imperial)
Date Time (edt) Wind (kph) Vis. (km) Weather Sky Cond. Temperature (ºC) Relative Humidity Wind Chill (°C) Heat Index (°C) Pressure Precipitation (cm)
Air Dwpt 6 hour altimeter (cm) sea level (mb) 1 hr 3 hr 6 hr
Max. Min.
10 05:56 Calm 16.09 Partly Cloudy SCT080 -2.8 -4.4 89% 76.15 1015.7
10 04:56 Calm 16.09 Fair CLR -2.8 -4.4 89% 76.07 1015.0
10 03:56 Calm 16.09 Fair CLR -2.2 -3.3 92% 76.02 1014.2
10 02:56 Calm 16.09 Fair CLR -1.1 -2.2 92% 76 1013.7
10 01:56 Calm 16.09 Fair CLR 0.6 -1.7 12.8 0.6 85% 75.97 1013.4
10 00:56 Calm 16.09 Partly Cloudy SCT100 1.7 -1.7 78% 75.95 1013.0
09 23:56 Calm 16.09 Fair CLR 5 -2.2 60% 75.92 1012.5
09 22:56 NE 13 16.09 Fair CLR 7.2 -2.2 52% 5 75.84 1011.3
09 21:56 NE 15 16.09 Fair CLR 8.3 -1.1 52% 6 75.74 1009.9
09 20:56 N 19 16.09 Fair CLR 9.4 -1.1 48% 7 75.62 1008.4
09 19:56 NW 26 G 33 16.09 Fair CLR 12.8 -2.2 14.4 11.7 36% 75.51 1007.0
09 18:56 NW 13 16.09 Fair CLR 13.3 -1.1 37% 75.44 1005.8
09 17:56 NW 15 16.09 A Few Clouds FEW095 12.8 2.2 49% 75.36 1005.2
09 16:56 W 19 16.09 Mostly Cloudy BKN095 12.8 2.8 51% 75.31 1004.3
09 15:56 W 19 16.09 Mostly Cloudy FEW075 BKN100 12.8 1.7 47% 75.26 1003.7
09 14:56 W 17 16.09 Overcast OVC060 12.2 1.1 47% 75.23 1003.3
09 12:56 W 7 16.09 Overcast OVC075 10.6 2.2 56% 75.18 1002.4
09 11:56 SW 6 16.09 Overcast OVC070 10.6 2.8 59% 75.16 1002.3
09 10:56 NW 7 16.09 Light Rain BKN050 OVC060 10.6 2.2 56% 75.16 1002.1
09 09:56 NW 22 G 31 16.09 Light Rain SCT048 BKN060 OVC090 10 3.9 66% 7 75.06 1000.8
09 08:56 SW 13 G 28 16.09 Fair CLR 12.2 5.6 64% 74.96 999.5
09 07:56 SW 11 16.09 A Few Clouds FEW100 11.1 7.8 13.3 6.1 80% 74.93 999.0
09 06:56 Vrbl 6 16.09 Partly Cloudy SCT110 9.4 6.1 80% 74.93 999.1
09 05:56 E 6 16.09 Partly Cloudy SCT100 6.7 3.3 79% 74.96 999.6
09 04:56 E 9 16.09 A Few Clouds FEW110 8.9 3.3 68% 8 75.03 1000.3
09 03:56 E 6 16.09 Light Rain FEW070 SCT110 11.1 3.9 61% 75.06 1000.7
09 02:56 S 7 16.09 Mostly Cloudy BKN095 12.8 0 42% 75.16 1002.1
09 01:56 Vrbl 7 16.09 Mostly Cloudy BKN095 BKN110 12.2 -3.3 15.6 11.1 34% 75.21 1002.7
09 00:56 SE 6 16.09 Mostly Cloudy BKN100 BKN120 11.1 -3.9 35% 75.26 1003.3
08 23:56 Calm 16.09 Overcast OVC090 12.2 -4.4 31% 75.31 1004.3
08 22:56 Vrbl 6 16.09 Overcast OVC090 12.8 -3.3 33% 75.36 1004.7
08 21:56 S 7 16.09 Mostly Cloudy BKN100 13.3 -4.4 29% 75.36 1004.8
08 20:56 Vrbl 11 16.09 Fair CLR 13.9 -4.4 28% 75.36 1004.8
08 19:56 S 15 G 28 16.09 A Few Clouds FEW100 15.6 -3.9 16.7 15 26% 75.36 1004.9
08 18:56 SW 13 16.09 Mostly Cloudy BKN100 16.1 -3.3 26% 75.39 1005.5
08 17:56 S 19 G 33 16.09 Mostly Cloudy BKN100 16.7 -3.3 25% 75.41 1005.9
08 16:56 SW 17 G 30 16.09 Fair CLR 16.7 -3.3 25% 75.44 1006.1
08 15:56 S 20 G 30 16.09 Fair CLR 16.7 -3.9 24% 75.49 1006.8
08 14:56 SW 22 G 31 16.09 Fair CLR 15.6 -3.3 27% 75.54 1007.6
08 13:56 SW 20 G 35 16.09 Fair CLR 15 -2.8 15.6 1.7 29% 75.62 1008.6
08 12:56 SW 24 G 35 16.09 Fair CLR 15 -2.2 31% 75.67 1009.1
08 11:56 SW 26 G 35 16.09 Fair CLR 14.4 -3.3 29% 75.69 1009.4
08 10:56 SW 20 G 31 16.09 Fair CLR 13.3 -1.7 36% 75.72 1009.6
08 09:56 SW 17 G 30 16.09 Fair CLR 11.7 0 45% 75.72 1009.8
08 08:56 SW 9 16.09 Fair CLR 8.3 1.7 63% 7 75.77 1010.4
08 07:56 E 6 16.09 Fair CLR 1.7 1.1 1.7 -3.3 96% 75.74 1010.5
08 06:56 E 6 16.09 Fair CLR -2.8 -3.3 96% 75.74 1010.4
08 05:56 E 7 16.09 Fair CLR -2.8 -3.3 96% -5 75.74 1010.3
08 04:56 NE 6 16.09 A Few Clouds FEW095 -2.8 -3.9 92% 75.79 1010.9
08 03:56 Calm 16.09 A Few Clouds FEW100 -2.2 -3.3 92% 75.82 1011.2
08 02:56 Calm 16.09 Fair CLR -2.2 -3.3 92% 75.82 1011.5
08 01:56 Calm 16.09 Fair CLR -1.1 -2.2 7.2 -1.1 92% 75.87 1011.9
08 00:56 Calm 16.09 Fair CLR 0 -1.1 92% 75.87 1012.0
07 23:56 Calm 16.09 Fair CLR 2.2 0 86% 75.87 1011.9
07 22:56 Calm 16.09 Partly Cloudy SCT090 3.9 1.1 82% 75.87 1012.0
07 21:56 Calm 16.09 Overcast OVC085 6.1 0.6 68% 75.84 1011.8
07 20:56 SW 7 16.09 Mostly Cloudy BKN085 6.1 0 65% 5 75.82 1011.4
07 19:56 NW 7 16.09 Partly Cloudy SCT085 7.2 -0.6 10 7.2 58% 6 75.82 1011.4
07 18:56 W 9 16.09 Mostly Cloudy BKN090 8.9 -2.8 44% 8 75.82 1011.5
07 17:56 W 17 16.09 Fair CLR 9.4 -3.3 41% 7 75.84 1011.7
07 16:56 W 15 16.09 Mostly Cloudy BKN065 8.9 -4.4 39% 7 75.87 1012.0
07 15:56 W 17 16.09 Fair CLR 9.4 -4.4 38% 7 75.9 1012.3
07 14:56 W 17 G 26 16.09 Fair CLR 8.9 -3.3 42% 7 75.92 1012.6
07 13:56 SW 15 G 35 16.09 Fair CLR 8.3 -3.9 8.9 2.2 42% 6 75.92 1012.9
07 12:56 W 15 16.09 Overcast OVC060 7.8 -2.2 50% 6 76 1013.7
07 11:56 W 17 16.09 Overcast OVC065 5.6 -1.1 62% 3 76.05 1014.3
07 10:56 W 15 16.09 Overcast OVC065 5.6 -0.6 65% 3 76.05 1014.2
07 09:56 W 13 16.09 Overcast OVC065 6.1 -1.1 60% 4 76.05 1014.3
07 08:56 SW 11 16.09 Mostly Cloudy BKN065 6.7 0.6 65% 5 76.02 1014.0
07 07:56 Calm 16.09 Fair CLR 1.7 1.1 4.4 -2.8 96% 76 1014.0
07 06:56 Calm 16.09 Fair CLR -1.7 -2.8 92% 75.97 1013.2
Date Time (edt) Wind (kph) Vis. (km) Weather Sky Cond. Air Dwpt Max. Min. Relative Humidity Wind Chill (°C) Heat Index (°C) altimeter (cm) sea level (mb) 1 hr 3 hr 6 hr
6 hour
Temperature (ºC) Pressure Precipitation (cm)